Time,TemperatureF,DewpointF,PressureIn,WindDirection,WindDirectionDegrees,WindSpeedMPH,WindSpeedGustMPH,Humidity,HourlyPrecipIn,Conditions,Clouds,dailyrainin,SoftwareType,DateUTC
2013-06-04 00:00:00,52.6,47.9,29.99,North,0,0.0,0.0,84,0.00,,,0.00,WUHU216HW,2013-06-04 07:00:00,
2013-06-04 00:05:00,52.4,48.0,29.99,North,0,0.0,0.0,85,0.00,,,0.00,WUHU216HW,2013-06-04 07:05:00,
2013-06-04 00:10:00,52.2,47.5,29.99,North,0,0.0,0.0,84,0.00,,,0.00,WUHU216HW,2013-06-04 07:10:00,
2013-06-04 00:15:00,52.2,47.8,29.99,North,0,0.0,0.0,85,0.00,,,0.00,WUHU216HW,2013-06-04 07:15:00,
2013-06-04 00:20:00,52.2,47.8,29.98,North,0,0.0,0.0,85,0.00,,,0.00,WUHU216HW,2013-06-04 07:20:00,
2013-06-04 00:25:00,52.2,47.8,29.99,North,0,0.0,0.0,85,0.00,,,0.00,WUHU216HW,2013-06-04 07:25:00,
2013-06-04 00:30:00,52.2,47.8,29.99,North,0,0.0,0.0,85,0.00,,,0.00,WUHU216HW,2013-06-04 07:30:00,
2013-06-04 00:35:00,52.2,47.8,29.98,North,0,0.0,0.0,85,0.00,,,0.00,WUHU216HW,2013-06-04 07:35:00,
2013-06-04 00:40:00,52.2,47.8,29.99,North,0,0.0,0.0,85,0.00,,,0.00,WUHU216HW,2013-06-04 07:40:00,
2013-06-04 00:45:00,52.0,47.6,29.98,North,0,0.0,0.0,85,0.00,,,0.00,WUHU216HW,2013-06-04 07:45:00,
2013-06-04 00:50:00,51.8,47.4,29.98,North,0,0.0,0.0,85,0.00,,,0.00,WUHU216HW,2013-06-04 07:50:00,
2013-06-04 00:55:00,51.7,47.3,29.98,North,0,0.0,0.0,85,0.00,,,0.00,WUHU216HW,2013-06-04 07:55:00,
2013-06-04 01:00:00,51.5,47.3,29.98,North,0,0.0,0.0,86,0.00,,,0.00,WUHU216HW,2013-06-04 08:00:00,
2013-06-04 01:05:00,51.5,47.3,29.98,North,0,0.0,0.0,86,0.00,,,0.00,WUHU216HW,2013-06-04 08:05:00,
2013-06-04 01:10:00,51.5,47.3,29.98,North,0,0.0,0.0,86,0.00,,,0.00,WUHU216HW,2013-06-04 08:10:00,
2013-06-04 01:15:00,51.3,47.2,29.98,North,0,0.0,0.0,86,0.00,,,0.00,WUHU216HW,2013-06-04 08:15:00,
2013-06-04 01:20:00,51.3,47.2,29.98,North,0,0.0,0.0,86,0.00,,,0.00,WUHU216HW,2013-06-04 08:20:00,
2013-06-04 01:25:00,51.1,47.0,29.98,North,0,0.0,0.0,86,0.00,,,0.00,WUHU216HW,2013-06-04 08:25:00,
2013-06-04 01:30:00,51.1,47.4,29.98,North,0,0.0,0.0,87,0.00,,,0.00,WUHU216HW,2013-06-04 08:30:00,
2013-06-04 01:35:00,50.9,47.2,29.97,North,0,0.0,0.0,87,0.00,,,0.00,WUHU216HW,2013-06-04 08:35:00,
2013-06-04 01:40:00,50.8,47.0,29.97,North,0,0.0,0.0,87,0.00,,,0.00,WUHU216HW,2013-06-04 08:40:00,
2013-06-04 01:45:00,50.9,47.2,29.97,North,0,0.0,0.0,87,0.00,,,0.00,WUHU216HW,2013-06-04 08:45:00,
2013-06-04 01:50:00,50.9,47.2,29.97,North,0,0.0,0.0,87,0.00,,,0.00,WUHU216HW,2013-06-04 08:50:00,
2013-06-04 01:55:00,50.8,47.0,29.97,North,0,0.0,0.0,87,0.00,,,0.00,WUHU216HW,2013-06-04 08:55:00,
2013-06-04 02:00:00,50.8,47.0,29.97,North,0,0.0,0.0,87,0.00,,,0.00,WUHU216HW,2013-06-04 09:00:00,
2013-06-04 02:05:00,50.8,47.0,29.97,North,0,0.0,0.0,87,0.00,,,0.00,WUHU216HW,2013-06-04 09:05:00,
2013-06-04 02:10:00,50.8,47.0,29.98,North,0,0.0,0.0,87,0.00,,,0.00,WUHU216HW,2013-06-04 09:10:00,
2013-06-04 02:15:00,50.8,46.6,29.97,North,0,0.0,0.0,86,0.00,,,0.00,WUHU216HW,2013-06-04 09:15:00,
2013-06-04 02:20:00,50.8,47.3,29.97,North,0,0.0,0.0,88,0.00,,,0.00,WUHU216HW,2013-06-04 09:20:00,
2013-06-04 02:25:00,50.9,47.4,29.97,North,0,0.0,0.0,88,0.00,,,0.00,WUHU216HW,2013-06-04 09:25:00,
2013-06-04 02:30:00,50.9,47.4,29.97,North,0,0.0,0.0,88,0.00,,,0.00,WUHU216HW,2013-06-04 09:30:00,
2013-06-04 02:35:00,51.1,47.6,29.97,North,0,0.0,0.0,88,0.00,,,0.00,WUHU216HW,2013-06-04 09:35:00,
2013-06-04 02:40:00,51.3,47.8,29.97,North,0,0.0,0.0,88,0.00,,,0.00,WUHU216HW,2013-06-04 09:40:00,
2013-06-04 02:45:00,51.3,47.8,29.97,North,0,0.0,0.0,88,0.00,,,0.00,WUHU216HW,2013-06-04 09:45:00,
2013-06-04 02:50:00,51.3,47.8,29.97,North,0,0.0,0.0,88,0.00,,,0.00,WUHU216HW,2013-06-04 09:50:00,
2013-06-04 02:55:00,51.3,47.8,29.97,North,0,0.0,0.0,88,0.00,,,0.00,WUHU216HW,2013-06-04 09:55:00,
2013-06-04 03:00:00,51.3,47.8,29.97,North,0,0.0,0.0,88,0.00,,,0.00,WUHU216HW,2013-06-04 10:00:00,
2013-06-04 03:05:00,51.3,47.8,29.97,North,0,0.0,0.0,88,0.00,,,0.00,WUHU216HW,2013-06-04 10:05:00,
2013-06-04 03:10:00,51.3,48.2,29.97,North,0,0.0,0.0,89,0.00,,,0.00,WUHU216HW,2013-06-04 10:10:00,
2013-06-04 03:15:00,51.3,48.2,29.97,North,0,0.0,0.0,89,0.00,,,0.00,WUHU216HW,2013-06-04 10:15:00,
2013-06-04 03:20:00,51.5,48.3,29.97,North,0,0.0,0.0,89,0.00,,,0.00,WUHU216HW,2013-06-04 10:20:00,
2013-06-04 03:25:00,51.5,48.3,29.97,North,0,0.0,0.0,89,0.00,,,0.00,WUHU216HW,2013-06-04 10:25:00,
2013-06-04 03:30:00,51.5,48.3,29.97,North,0,0.0,0.0,89,0.00,,,0.00,WUHU216HW,2013-06-04 10:30:00,
2013-06-04 03:35:00,51.5,48.3,29.97,North,0,0.0,0.0,89,0.00,,,0.00,WUHU216HW,2013-06-04 10:35:00,
2013-06-04 03:40:00,51.5,48.3,29.97,North,0,0.0,0.0,89,0.00,,,0.00,WUHU216HW,2013-06-04 10:40:00,
2013-06-04 03:45:00,51.7,48.5,29.98,North,0,0.0,0.0,89,0.00,,,0.00,WUHU216HW,2013-06-04 10:45:00,
2013-06-04 03:50:00,51.7,48.5,29.97,North,0,0.0,0.0,89,0.00,,,0.00,WUHU216HW,2013-06-04 10:50:00,
2013-06-04 03:55:00,51.8,48.7,29.97,North,0,0.0,0.0,89,0.00,,,0.00,WUHU216HW,2013-06-04 10:55:00,
2013-06-04 04:00:00,51.8,49.0,29.98,North,0,0.0,0.0,90,0.00,,,0.00,WUHU216HW,2013-06-04 11:00:00,
2013-06-04 04:05:00,52.0,48.9,29.98,North,0,0.0,0.0,89,0.00,,,0.00,WUHU216HW,2013-06-04 11:05:00,
2013-06-04 04:10:00,52.0,48.9,29.98,North,0,0.0,0.0,89,0.00,,,0.00,WUHU216HW,2013-06-04 11:10:00,
2013-06-04 04:15:00,52.2,49.1,29.98,North,0,0.0,0.0,89,0.00,,,0.00,WUHU216HW,2013-06-04 11:15:00,
2013-06-04 04:20:00,52.2,49.1,29.98,North,0,0.0,0.0,89,0.00,,,0.00,WUHU216HW,2013-06-04 11:20:00,
2013-06-04 04:25:00,52.2,49.1,29.98,North,0,0.0,0.0,89,0.00,,,0.00,WUHU216HW,2013-06-04 11:25:00,
2013-06-04 04:30:00,52.2,49.1,29.98,North,0,0.0,0.0,89,0.00,,,0.00,WUHU216HW,2013-06-04 11:30:00,
2013-06-04 04:35:00,52.2,49.1,29.99,North,0,0.0,0.0,89,0.00,,,0.00,WUHU216HW,2013-06-04 11:35:00,
2013-06-04 04:40:00,52.4,49.2,29.99,North,0,0.0,0.0,89,0.00,,,0.00,WUHU216HW,2013-06-04 11:40:00,
2013-06-04 04:45:00,52.4,49.2,29.99,North,0,0.0,0.0,89,0.00,,,0.00,WUHU216HW,2013-06-04 11:45:00,
2013-06-04 04:50:00,52.6,49.4,29.99,North,0,0.0,0.0,89,0.00,,,0.00,WUHU216HW,2013-06-04 11:50:00,
2013-06-04 04:55:00,52.6,49.4,29.99,North,0,0.0,0.0,89,0.00,,,0.00,WUHU216HW,2013-06-04 11:55:00,
2013-06-04 05:01:00,52.6,49.4,29.99,North,0,0.0,0.0,89,0.00,,,0.00,WUHU216HW,2013-06-04 12:01:00,
2013-06-04 05:06:00,52.7,49.6,29.99,North,0,0.0,0.0,89,0.00,,,0.00,WUHU216HW,2013-06-04 12:06:00,
2013-06-04 05:11:00,52.7,49.6,29.99,North,0,0.0,0.0,89,0.00,,,0.00,WUHU216HW,2013-06-04 12:11:00,
2013-06-04 05:16:00,52.7,49.6,29.99,North,0,0.0,0.0,89,0.00,,,0.00,WUHU216HW,2013-06-04 12:16:00,
2013-06-04 05:21:00,52.9,49.8,29.99,North,0,0.0,0.0,89,0.00,,,0.00,WUHU216HW,2013-06-04 12:21:00,
2013-06-04 05:26:00,52.7,49.6,29.99,North,0,0.0,0.0,89,0.00,,,0.00,WUHU216HW,2013-06-04 12:26:00,
2013-06-04 05:31:00,52.9,49.8,29.99,North,0,0.0,0.0,89,0.00,,,0.00,WUHU216HW,2013-06-04 12:31:00,
2013-06-04 05:36:00,52.9,49.8,30.00,North,0,0.0,0.0,89,0.00,,,0.00,WUHU216HW,2013-06-04 12:36:00,
2013-06-04 05:41:00,52.9,49.8,30.00,North,0,0.0,0.0,89,0.00,,,0.00,WUHU216HW,2013-06-04 12:41:00,
2013-06-04 05:46:00,52.9,49.8,30.00,North,0,0.0,0.0,89,0.00,,,0.00,WUHU216HW,2013-06-04 12:46:00,
2013-06-04 05:51:00,52.9,49.4,30.00,North,0,0.0,0.0,88,0.00,,,0.00,WUHU216HW,2013-06-04 12:51:00,
2013-06-04 05:56:00,52.9,49.4,30.00,North,0,0.0,0.0,88,0.00,,,0.00,WUHU216HW,2013-06-04 12:56:00,
2013-06-04 06:01:00,52.9,49.4,30.00,North,0,0.0,0.0,88,0.00,,,0.00,WUHU216HW,2013-06-04 13:01:00,
2013-06-04 06:06:00,52.9,49.4,30.00,North,0,0.0,0.0,88,0.00,,,0.00,WUHU216HW,2013-06-04 13:06:00,
2013-06-04 06:11:00,52.9,49.4,30.00,North,0,0.0,0.0,88,0.00,,,0.00,WUHU216HW,2013-06-04 13:11:00,
2013-06-04 06:16:00,53.1,49.6,30.00,North,0,0.0,0.0,88,0.00,,,0.00,WUHU216HW,2013-06-04 13:16:00,
2013-06-04 06:21:00,52.9,49.4,30.00,North,0,0.0,0.0,88,0.00,,,0.00,WUHU216HW,2013-06-04 13:21:00,
2013-06-04 06:26:00,53.1,49.6,30.00,North,0,0.0,0.0,88,0.00,,,0.00,WUHU216HW,2013-06-04 13:26:00,
2013-06-04 06:31:00,53.1,49.6,30.00,North,0,0.0,0.0,88,0.00,,,0.00,WUHU216HW,2013-06-04 13:31:00,
2013-06-04 06:36:00,53.1,49.6,30.01,North,0,0.0,0.0,88,0.00,,,0.00,WUHU216HW,2013-06-04 13:36:00,
2013-06-04 06:41:00,53.1,49.6,30.01,North,0,0.0,0.0,88,0.00,,,0.00,WUHU216HW,2013-06-04 13:41:00,
2013-06-04 06:46:00,53.1,49.6,30.01,North,0,0.0,0.0,88,0.00,,,0.00,WUHU216HW,2013-06-04 13:46:00,
2013-06-04 06:51:00,53.1,49.6,30.01,North,0,0.0,0.0,88,0.00,,,0.00,WUHU216HW,2013-06-04 13:51:00,
2013-06-04 06:56:00,53.3,49.8,30.01,North,0,0.0,0.0,88,0.00,,,0.00,WUHU216HW,2013-06-04 13:56:00,
2013-06-04 07:01:00,53.3,49.8,30.01,North,0,0.0,0.0,88,0.00,,,0.00,WUHU216HW,2013-06-04 14:01:00,
2013-06-04 07:06:00,53.3,49.8,30.02,North,0,0.0,0.0,88,0.00,,,0.00,WUHU216HW,2013-06-04 14:06:00,
2013-06-04 07:11:00,53.3,49.8,30.02,North,0,0.0,0.0,88,0.00,,,0.00,WUHU216HW,2013-06-04 14:11:00,
2013-06-04 07:16:00,53.5,50.0,30.02,North,0,0.0,0.0,88,0.00,,,0.00,WUHU216HW,2013-06-04 14:16:00,
2013-06-04 07:21:00,53.5,50.0,30.02,North,0,0.0,0.0,88,0.00,,,0.00,WUHU216HW,2013-06-04 14:21:00,
2013-06-04 07:26:00,53.6,50.1,30.03,North,0,0.0,0.0,88,0.00,,,0.00,WUHU216HW,2013-06-04 14:26:00,
2013-06-04 07:31:00,53.6,50.1,30.03,North,0,0.0,0.0,88,0.00,,,0.00,WUHU216HW,2013-06-04 14:31:00,
2013-06-04 07:36:00,53.6,50.1,30.03,North,0,0.0,0.0,88,0.00,,,0.00,WUHU216HW,2013-06-04 14:36:00,
2013-06-04 07:41:00,53.6,50.1,30.03,North,0,0.0,0.0,88,0.00,,,0.00,WUHU216HW,2013-06-04 14:41:00,
2013-06-04 07:46:00,53.8,50.3,30.03,North,0,0.0,0.0,88,0.00,,,0.00,WUHU216HW,2013-06-04 14:46:00,
2013-06-04 07:51:00,54.0,50.5,30.03,North,0,0.0,0.0,88,0.00,,,0.00,WUHU216HW,2013-06-04 14:51:00,
2013-06-04 07:56:00,54.2,50.7,30.03,North,0,0.0,0.0,88,0.00,,,0.00,WUHU216HW,2013-06-04 14:56:00,
2013-06-04 08:02:00,54.2,50.4,30.03,North,0,0.0,0.0,87,0.00,,,0.00,WUHU216HW,2013-06-04 15:02:00,
2013-06-04 08:07:00,54.4,50.6,30.03,North,0,0.0,0.0,87,0.00,,,0.00,WUHU216HW,2013-06-04 15:07:00,
2013-06-04 08:12:00,54.4,50.6,30.04,North,0,0.0,0.0,87,0.00,,,0.00,WUHU216HW,2013-06-04 15:12:00,
2013-06-04 08:17:00,54.5,50.8,30.04,North,0,0.0,0.0,87,0.00,,,0.00,WUHU216HW,2013-06-04 15:17:00,
2013-06-04 08:22:00,54.7,50.9,30.04,North,0,0.0,0.0,87,0.00,,,0.00,WUHU216HW,2013-06-04 15:22:00,
2013-06-04 08:27:00,54.7,50.6,30.04,North,0,0.0,0.0,86,0.00,,,0.00,WUHU216HW,2013-06-04 15:27:00,
2013-06-04 08:32:00,55.1,51.0,30.05,North,0,0.0,0.0,86,0.00,,,0.00,WUHU216HW,2013-06-04 15:32:00,
2013-06-04 08:37:00,55.1,51.0,30.05,North,0,0.0,0.0,86,0.00,,,0.00,WUHU216HW,2013-06-04 15:37:00,
2013-06-04 08:42:00,55.1,51.0,30.05,North,0,0.0,0.0,86,0.00,,,0.00,WUHU216HW,2013-06-04 15:42:00,
2013-06-04 08:47:00,55.3,51.1,30.05,North,0,0.0,0.0,86,0.00,,,0.00,WUHU216HW,2013-06-04 15:47:00,
2013-06-04 08:52:00,55.4,51.3,30.05,North,0,0.0,0.0,86,0.00,,,0.00,WUHU216HW,2013-06-04 15:52:00,
2013-06-04 08:57:00,55.8,51.7,30.05,North,0,0.0,0.0,86,0.00,,,0.00,WUHU216HW,2013-06-04 15:57:00,
2013-06-04 09:02:00,55.8,51.7,30.05,North,0,0.0,0.0,86,0.00,,,0.00,WUHU216HW,2013-06-04 16:02:00,
2013-06-04 09:07:00,56.0,51.9,30.05,North,0,0.0,0.0,86,0.00,,,0.00,WUHU216HW,2013-06-04 16:07:00,
2013-06-04 09:12:00,56.0,51.5,30.05,North,0,0.0,0.0,85,0.00,,,0.00,WUHU216HW,2013-06-04 16:12:00,
2013-06-04 09:17:00,56.2,51.7,30.05,North,0,0.0,0.0,85,0.00,,,0.00,WUHU216HW,2013-06-04 16:17:00,
2013-06-04 09:22:00,56.2,51.7,30.05,North,0,0.0,0.0,85,0.00,,,0.00,WUHU216HW,2013-06-04 16:22:00,
2013-06-04 09:27:00,56.3,51.8,30.05,North,0,0.0,0.0,85,0.00,,,0.00,WUHU216HW,2013-06-04 16:27:00,
2013-06-04 09:32:00,56.5,52.0,30.05,North,0,0.0,0.0,85,0.00,,,0.00,WUHU216HW,2013-06-04 16:32:00,
2013-06-04 09:37:00,56.7,51.8,30.05,North,0,0.0,0.0,84,0.00,,,0.00,WUHU216HW,2013-06-04 16:37:00,
2013-06-04 09:42:00,56.9,52.0,30.05,North,0,0.0,0.0,84,0.00,,,0.00,WUHU216HW,2013-06-04 16:42:00,
2013-06-04 09:47:00,57.1,52.2,30.05,North,0,0.0,0.0,84,0.00,,,0.00,WUHU216HW,2013-06-04 16:47:00,
2013-06-04 09:52:00,57.2,52.4,30.06,North,0,0.0,0.0,84,0.00,,,0.00,WUHU216HW,2013-06-04 16:52:00,
2013-06-04 09:57:00,57.4,52.9,30.06,North,0,0.0,0.0,85,0.00,,,0.00,WUHU216HW,2013-06-04 16:57:00,
2013-06-04 10:02:00,57.8,52.9,30.06,North,0,0.0,0.0,84,0.00,,,0.00,WUHU216HW,2013-06-04 17:02:00,
2013-06-04 10:07:00,58.0,53.1,30.06,North,0,0.0,0.0,84,0.00,,,0.00,WUHU216HW,2013-06-04 17:07:00,
2013-06-04 10:12:00,58.1,53.0,30.06,North,0,0.0,0.0,83,0.00,,,0.00,WUHU216HW,2013-06-04 17:12:00,
2013-06-04 10:17:00,58.3,53.2,30.06,North,0,0.0,0.0,83,0.00,,,0.00,WUHU216HW,2013-06-04 17:17:00,
2013-06-04 10:22:00,58.7,53.6,30.06,North,0,0.0,0.0,83,0.00,,,0.00,WUHU216HW,2013-06-04 17:22:00,
2013-06-04 10:27:00,58.9,53.7,30.06,North,0,0.0,0.0,83,0.00,,,0.00,WUHU216HW,2013-06-04 17:27:00,
2013-06-04 10:32:00,59.0,53.6,30.07,North,0,0.0,0.0,82,0.00,,,0.00,WUHU216HW,2013-06-04 17:32:00,
2013-06-04 10:37:00,59.0,53.6,30.07,North,0,0.0,0.0,82,0.00,,,0.00,WUHU216HW,2013-06-04 17:37:00,
2013-06-04 10:42:00,59.4,53.9,30.07,North,0,0.0,0.0,82,0.00,,,0.00,WUHU216HW,2013-06-04 17:42:00,
2013-06-04 10:47:00,59.8,54.0,30.07,North,0,0.0,0.0,81,0.00,,,0.00,WUHU216HW,2013-06-04 17:47:00,
2013-06-04 10:52:00,60.3,54.6,30.07,North,0,0.0,0.0,81,0.00,,,0.00,WUHU216HW,2013-06-04 17:52:00,
2013-06-04 10:57:00,61.0,54.9,30.07,North,0,0.0,0.0,80,0.00,,,0.00,WUHU216HW,2013-06-04 17:57:00,
2013-06-04 11:02:00,60.8,54.4,30.07,North,0,0.0,0.0,79,0.00,,,0.00,WUHU216HW,2013-06-04 18:02:00,
2013-06-04 11:07:00,60.5,54.0,30.07,North,0,0.0,0.0,79,0.00,,,0.00,WUHU216HW,2013-06-04 18:07:00,
2013-06-04 11:12:00,60.8,54.4,30.07,North,0,0.0,0.0,79,0.00,,,0.00,WUHU216HW,2013-06-04 18:12:00,
2013-06-04 11:17:00,61.2,54.4,30.07,North,0,0.0,0.0,78,0.00,,,0.00,WUHU216HW,2013-06-04 18:17:00,
2013-06-04 11:22:00,61.6,55.0,30.07,North,0,0.0,0.0,79,0.00,,,0.00,WUHU216HW,2013-06-04 18:22:00,
2013-06-04 11:27:00,61.9,54.6,30.07,North,0,0.0,0.0,77,0.00,,,0.00,WUHU216HW,2013-06-04 18:27:00,
2013-06-04 11:32:00,62.1,54.8,30.07,North,0,0.0,0.0,77,0.00,,,0.00,WUHU216HW,2013-06-04 18:32:00,
2013-06-04 11:37:00,62.3,54.9,30.07,North,0,0.0,0.0,77,0.00,,,0.00,WUHU216HW,2013-06-04 18:37:00,
2013-06-04 11:42:00,62.5,54.7,30.07,North,0,0.0,0.0,76,0.00,,,0.00,WUHU216HW,2013-06-04 18:42:00,
2013-06-04 11:47:00,62.5,54.7,30.07,North,0,0.0,0.0,76,0.00,,,0.00,WUHU216HW,2013-06-04 18:47:00,
2013-06-04 11:52:00,62.6,54.5,30.07,North,0,0.0,0.0,75,0.00,,,0.00,WUHU216HW,2013-06-04 18:52:00,
2013-06-04 11:57:00,62.6,54.5,30.07,North,0,0.0,0.0,75,0.00,,,0.00,WUHU216HW,2013-06-04 18:57:00,
2013-06-04 12:02:00,62.8,55.1,30.07,North,0,0.0,0.0,76,0.00,,,0.00,WUHU216HW,2013-06-04 19:02:00,
2013-06-04 12:07:00,63.5,55.8,30.07,North,0,0.0,0.0,76,0.00,,,0.00,WUHU216HW,2013-06-04 19:07:00,
2013-06-04 12:12:00,64.3,56.5,30.07,North,0,0.0,0.0,76,0.00,,,0.00,WUHU216HW,2013-06-04 19:12:00,
2013-06-04 12:17:00,64.8,56.4,30.07,North,0,0.0,0.0,74,0.00,,,0.00,WUHU216HW,2013-06-04 19:17:00,
2013-06-04 12:22:00,65.0,56.2,30.07,North,0,0.0,0.0,73,0.00,,,0.00,WUHU216HW,2013-06-04 19:22:00,
2013-06-04 12:27:00,64.6,55.8,30.07,North,0,0.0,0.0,73,0.00,,,0.00,WUHU216HW,2013-06-04 19:27:00,
2013-06-04 12:32:00,64.4,55.6,30.07,North,0,0.0,0.0,73,0.00,,,0.00,WUHU216HW,2013-06-04 19:32:00,
2013-06-04 12:37:00,64.8,56.0,30.07,North,0,0.0,0.0,73,0.00,,,0.00,WUHU216HW,2013-06-04 19:37:00,
2013-06-04 12:42:00,65.2,55.9,30.07,North,0,0.0,0.0,72,0.00,,,0.00,WUHU216HW,2013-06-04 19:42:00,
2013-06-04 12:47:00,64.8,56.0,30.07,North,0,0.0,0.0,73,0.00,,,0.00,WUHU216HW,2013-06-04 19:47:00,
2013-06-04 12:52:00,65.2,55.5,30.07,North,0,0.0,0.0,71,0.00,,,0.00,WUHU216HW,2013-06-04 19:52:00,
2013-06-04 12:57:00,65.3,55.7,30.07,North,0,0.0,0.0,71,0.00,,,0.00,WUHU216HW,2013-06-04 19:57:00,
2013-06-04 13:02:00,65.5,55.9,30.07,North,0,0.0,0.0,71,0.00,,,0.00,WUHU216HW,2013-06-04 20:02:00,
2013-06-04 13:07:00,65.7,55.7,30.07,North,0,0.0,0.0,70,0.00,,,0.00,WUHU216HW,2013-06-04 20:07:00,
2013-06-04 13:12:00,65.9,55.8,30.07,North,0,0.0,0.0,70,0.00,,,0.00,WUHU216HW,2013-06-04 20:12:00,
2013-06-04 13:17:00,66.4,56.3,30.07,North,0,0.0,0.0,70,0.00,,,0.00,WUHU216HW,2013-06-04 20:17:00,
2013-06-04 13:22:00,66.8,56.3,30.07,North,0,0.0,0.0,69,0.00,,,0.00,WUHU216HW,2013-06-04 20:22:00,
2013-06-04 13:27:00,67.1,56.6,30.07,North,0,0.0,0.0,69,0.00,,,0.00,WUHU216HW,2013-06-04 20:27:00,
2013-06-04 13:32:00,67.1,56.3,30.07,North,0,0.0,0.0,68,0.00,,,0.00,WUHU216HW,2013-06-04 20:32:00,
2013-06-04 13:37:00,67.1,56.3,30.07,North,0,0.0,0.0,68,0.00,,,0.00,WUHU216HW,2013-06-04 20:37:00,
2013-06-04 13:42:00,67.3,56.8,30.07,North,0,0.0,0.0,69,0.00,,,0.00,WUHU216HW,2013-06-04 20:42:00,
2013-06-04 13:47:00,67.3,56.4,30.07,North,0,0.0,0.0,68,0.00,,,0.00,WUHU216HW,2013-06-04 20:47:00,
2013-06-04 13:52:00,67.0,55.2,30.06,North,0,0.0,0.0,66,0.00,,,0.00,WUHU216HW,2013-06-04 20:52:00,
2013-06-04 13:57:00,67.0,55.6,30.07,North,0,0.0,0.0,67,0.00,,,0.00,WUHU216HW,2013-06-04 20:57:00,
2013-06-04 14:02:00,67.0,56.1,30.07,North,0,0.0,0.0,68,0.00,,,0.00,WUHU216HW,2013-06-04 21:02:00,
2013-06-04 14:07:00,66.4,55.1,30.07,North,0,0.0,0.0,67,0.00,,,0.00,WUHU216HW,2013-06-04 21:07:00,
2013-06-04 14:12:00,66.6,56.1,30.06,North,0,0.0,0.0,69,0.00,,,0.00,WUHU216HW,2013-06-04 21:12:00,
2013-06-04 14:18:00,66.8,55.9,30.06,North,0,0.0,0.0,68,0.00,,,0.00,WUHU216HW,2013-06-04 21:18:00,
2013-06-04 14:23:00,67.0,56.1,30.06,North,0,0.0,0.0,68,0.00,,,0.00,WUHU216HW,2013-06-04 21:23:00,
2013-06-04 14:28:00,66.8,55.4,30.07,North,0,0.0,0.0,67,0.00,,,0.00,WUHU216HW,2013-06-04 21:28:00,
2013-06-04 14:33:00,66.8,55.9,30.07,North,0,0.0,0.0,68,0.00,,,0.00,WUHU216HW,2013-06-04 21:33:00,
2013-06-04 14:38:00,66.6,55.7,30.07,North,0,0.0,0.0,68,0.00,,,0.00,WUHU216HW,2013-06-04 21:38:00,
2013-06-04 14:43:00,66.8,55.9,30.07,North,0,0.0,0.0,68,0.00,,,0.00,WUHU216HW,2013-06-04 21:43:00,
2013-06-04 14:48:00,66.8,55.4,30.06,North,0,0.0,0.0,67,0.00,,,0.00,WUHU216HW,2013-06-04 21:48:00,
2013-06-04 14:53:00,66.2,54.9,30.07,North,0,0.0,0.0,67,0.00,,,0.00,WUHU216HW,2013-06-04 21:53:00,
2013-06-04 14:58:00,66.2,55.4,30.06,North,0,0.0,0.0,68,0.00,,,0.00,WUHU216HW,2013-06-04 21:58:00,
2013-06-04 15:03:00,66.6,55.7,30.06,North,0,0.0,0.0,68,0.00,,,0.00,WUHU216HW,2013-06-04 22:03:00,
2013-06-04 15:08:00,66.6,55.7,30.06,North,0,0.0,0.0,68,0.00,,,0.00,WUHU216HW,2013-06-04 22:08:00,
2013-06-04 15:13:00,67.3,56.4,30.07,North,0,0.0,0.0,68,0.00,,,0.00,WUHU216HW,2013-06-04 22:13:00,
2013-06-04 15:18:00,67.3,56.0,30.06,North,0,0.0,0.0,67,0.00,,,0.00,WUHU216HW,2013-06-04 22:18:00,
2013-06-04 15:23:00,67.5,55.7,30.06,North,0,0.0,0.0,66,0.00,,,0.00,WUHU216HW,2013-06-04 22:23:00,
2013-06-04 15:28:00,67.3,55.5,30.06,North,0,0.0,0.0,66,0.00,,,0.00,WUHU216HW,2013-06-04 22:28:00,
2013-06-04 15:33:00,66.8,54.6,30.06,North,0,0.0,0.0,65,0.00,,,0.00,WUHU216HW,2013-06-04 22:33:00,
2013-06-04 15:38:00,66.6,55.3,30.07,North,0,0.0,0.0,67,0.00,,,0.00,WUHU216HW,2013-06-04 22:38:00,
2013-06-04 15:43:00,66.2,54.6,30.06,North,0,0.0,0.0,66,0.00,,,0.00,WUHU216HW,2013-06-04 22:43:00,
2013-06-04 15:48:00,66.1,54.7,30.06,North,0,0.0,0.0,67,0.00,,,0.00,WUHU216HW,2013-06-04 22:48:00,
2013-06-04 15:53:00,66.1,54.4,30.06,North,0,0.0,0.0,66,0.00,,,0.00,WUHU216HW,2013-06-04 22:53:00,
2013-06-04 15:58:00,66.2,54.1,30.06,North,0,0.0,0.0,65,0.00,,,0.00,WUHU216HW,2013-06-04 22:58:00,
2013-06-04 16:03:00,66.1,54.4,30.06,North,0,0.0,0.0,66,0.00,,,0.00,WUHU216HW,2013-06-04 23:03:00,
2013-06-04 16:08:00,65.9,54.2,30.06,North,0,0.0,0.0,66,0.00,,,0.00,WUHU216HW,2013-06-04 23:08:00,
2013-06-04 16:13:00,65.2,53.5,30.05,North,0,0.0,0.0,66,0.00,,,0.00,WUHU216HW,2013-06-04 23:13:00,
2013-06-04 16:18:00,64.6,53.4,30.05,North,0,0.0,0.0,67,0.00,,,0.00,WUHU216HW,2013-06-04 23:18:00,
2013-06-04 16:23:00,64.1,53.3,30.05,North,0,0.0,0.0,68,0.00,,,0.00,WUHU216HW,2013-06-04 23:23:00,
2013-06-04 16:28:00,64.3,53.5,30.05,North,0,0.0,0.0,68,0.00,,,0.00,WUHU216HW,2013-06-04 23:28:00,
2013-06-04 16:33:00,64.4,53.6,30.05,North,0,0.0,0.0,68,0.00,,,0.00,WUHU216HW,2013-06-04 23:33:00,
2013-06-04 16:38:00,64.4,53.6,30.05,North,0,0.0,0.0,68,0.00,,,0.00,WUHU216HW,2013-06-04 23:38:00,
2013-06-04 16:43:00,64.6,54.3,30.05,North,0,0.0,0.0,69,0.00,,,0.00,WUHU216HW,2013-06-04 23:43:00,
2013-06-04 16:48:00,64.8,54.0,30.05,North,0,0.0,0.0,68,0.00,,,0.00,WUHU216HW,2013-06-04 23:48:00,
2013-06-04 16:53:00,64.6,53.8,30.05,North,0,0.0,0.0,68,0.00,,,0.00,WUHU216HW,2013-06-04 23:53:00,
2013-06-04 16:58:00,64.1,53.3,30.05,North,0,0.0,0.0,68,0.00,,,0.00,WUHU216HW,2013-06-04 23:58:00,
2013-06-04 17:03:00,64.1,53.7,30.05,North,0,0.0,0.0,69,0.00,,,0.00,WUHU216HW,2013-06-05 00:03:00,
2013-06-04 17:08:00,64.3,53.9,30.05,North,0,0.0,0.0,69,0.00,,,0.00,WUHU216HW,2013-06-05 00:08:00,
2013-06-04 17:13:00,64.1,53.7,30.05,North,0,0.0,0.0,69,0.00,,,0.00,WUHU216HW,2013-06-05 00:13:00,
2013-06-04 17:18:00,64.1,53.7,30.05,North,0,0.0,0.0,69,0.00,,,0.00,WUHU216HW,2013-06-05 00:18:00,
2013-06-04 17:23:00,63.5,53.2,30.05,North,0,0.0,0.0,69,0.00,,,0.00,WUHU216HW,2013-06-05 00:23:00,
2013-06-04 17:28:00,63.5,53.6,30.05,North,0,0.0,0.0,70,0.00,,,0.00,WUHU216HW,2013-06-05 00:28:00,
2013-06-04 17:33:00,63.5,53.6,30.05,North,0,0.0,0.0,70,0.00,,,0.00,WUHU216HW,2013-06-05 00:33:00,
2013-06-04 17:38:00,63.0,53.1,30.05,North,0,0.0,0.0,70,0.00,,,0.00,WUHU216HW,2013-06-05 00:38:00,
2013-06-04 17:43:00,63.4,53.5,30.05,North,0,0.0,0.0,70,0.00,,,0.00,WUHU216HW,2013-06-05 00:43:00,
2013-06-04 17:48:00,63.0,53.5,30.05,North,0,0.0,0.0,71,0.00,,,0.00,WUHU216HW,2013-06-05 00:48:00,
2013-06-04 17:53:00,63.0,53.5,30.05,North,0,0.0,0.0,71,0.00,,,0.00,WUHU216HW,2013-06-05 00:53:00,
2013-06-04 17:58:00,63.2,53.6,30.05,North,0,0.0,0.0,71,0.00,,,0.00,WUHU216HW,2013-06-05 00:58:00,
2013-06-04 18:03:00,63.0,53.1,30.05,North,0,0.0,0.0,70,0.00,,,0.00,WUHU216HW,2013-06-05 01:03:00,
2013-06-04 18:08:00,62.6,53.1,30.05,North,0,0.0,0.0,71,0.00,,,0.00,WUHU216HW,2013-06-05 01:08:00,
2013-06-04 18:13:00,62.3,52.7,30.05,North,0,0.0,0.0,71,0.00,,,0.00,WUHU216HW,2013-06-05 01:13:00,
2013-06-04 18:18:00,62.3,53.1,30.05,North,0,0.0,0.0,72,0.00,,,0.00,WUHU216HW,2013-06-05 01:18:00,
2013-06-04 18:23:00,62.1,53.0,30.05,North,0,0.0,0.0,72,0.00,,,0.00,WUHU216HW,2013-06-05 01:23:00,
2013-06-04 18:28:00,62.1,53.0,30.05,North,0,0.0,0.0,72,0.00,,,0.00,WUHU216HW,2013-06-05 01:28:00,
2013-06-04 18:33:00,61.9,52.8,30.05,North,0,0.0,0.0,72,0.00,,,0.00,WUHU216HW,2013-06-05 01:33:00,
2013-06-04 18:38:00,62.1,53.0,30.05,North,0,0.0,0.0,72,0.00,,,0.00,WUHU216HW,2013-06-05 01:38:00,
2013-06-04 18:43:00,61.7,52.3,30.05,North,0,0.0,0.0,71,0.00,,,0.00,WUHU216HW,2013-06-05 01:43:00,
2013-06-04 18:48:00,61.6,52.1,30.05,North,0,0.0,0.0,71,0.00,,,0.00,WUHU216HW,2013-06-05 01:48:00,
2013-06-04 18:53:00,61.2,52.2,30.05,North,0,0.0,0.0,72,0.00,,,0.00,WUHU216HW,2013-06-05 01:53:00,
2013-06-04 18:58:00,61.2,52.2,30.05,North,0,0.0,0.0,72,0.00,,,0.00,WUHU216HW,2013-06-05 01:58:00,
2013-06-04 19:03:00,61.2,52.2,30.05,North,0,0.0,0.0,72,0.00,,,0.00,WUHU216HW,2013-06-05 02:03:00,
2013-06-04 19:08:00,61.2,52.2,30.05,North,0,0.0,0.0,72,0.00,,,0.00,WUHU216HW,2013-06-05 02:08:00,
2013-06-04 19:13:00,61.0,52.4,30.05,North,0,0.0,0.0,73,0.00,,,0.00,WUHU216HW,2013-06-05 02:13:00,
2013-06-04 19:18:00,60.8,52.2,30.05,North,0,0.0,0.0,73,0.00,,,0.00,WUHU216HW,2013-06-05 02:18:00,
2013-06-04 19:23:00,60.8,52.2,30.05,North,0,0.0,0.0,73,0.00,,,0.00,WUHU216HW,2013-06-05 02:23:00,
2013-06-04 19:28:00,60.7,52.0,30.05,North,0,0.0,0.0,73,0.00,,,0.00,WUHU216HW,2013-06-05 02:28:00,
2013-06-04 19:33:00,60.5,51.8,30.05,North,0,0.0,0.0,73,0.00,,,0.00,WUHU216HW,2013-06-05 02:33:00,
2013-06-04 19:38:00,60.3,51.7,30.05,North,0,0.0,0.0,73,0.00,,,0.00,WUHU216HW,2013-06-05 02:38:00,
2013-06-04 19:43:00,60.1,51.8,30.05,North,0,0.0,0.0,74,0.00,,,0.00,WUHU216HW,2013-06-05 02:43:00,
2013-06-04 19:48:00,59.8,51.5,30.05,North,0,0.0,0.0,74,0.00,,,0.00,WUHU216HW,2013-06-05 02:48:00,
2013-06-04 19:53:00,59.8,51.5,30.05,North,0,0.0,0.0,74,0.00,,,0.00,WUHU216HW,2013-06-05 02:53:00,
2013-06-04 19:58:00,59.4,51.1,30.05,North,0,0.0,0.0,74,0.00,,,0.00,WUHU216HW,2013-06-05 02:58:00,
2013-06-04 20:03:00,59.4,51.5,30.05,North,0,0.0,0.0,75,0.00,,,0.00,WUHU216HW,2013-06-05 03:03:00,
2013-06-04 20:08:00,59.0,51.1,30.05,North,0,0.0,0.0,75,0.00,,,0.00,WUHU216HW,2013-06-05 03:08:00,
2013-06-04 20:13:00,58.9,50.9,30.05,North,0,0.0,0.0,75,0.00,,,0.00,WUHU216HW,2013-06-05 03:13:00,
2013-06-04 20:18:00,58.9,50.9,30.05,North,0,0.0,0.0,75,0.00,,,0.00,WUHU216HW,2013-06-05 03:18:00,
2013-06-04 20:23:00,58.7,51.1,30.05,North,0,0.0,0.0,76,0.00,,,0.00,WUHU216HW,2013-06-05 03:23:00,
2013-06-04 20:28:00,58.3,50.8,30.05,North,0,0.0,0.0,76,0.00,,,0.00,WUHU216HW,2013-06-05 03:28:00,
2013-06-04 20:33:00,58.1,50.6,30.06,North,0,0.0,0.0,76,0.00,,,0.00,WUHU216HW,2013-06-05 03:33:00,
2013-06-04 20:38:00,58.0,50.4,30.06,North,0,0.0,0.0,76,0.00,,,0.00,WUHU216HW,2013-06-05 03:38:00,
2013-06-04 20:43:00,57.8,50.2,30.06,North,0,0.0,0.0,76,0.00,,,0.00,WUHU216HW,2013-06-05 03:43:00,
2013-06-04 20:48:00,57.6,50.4,30.06,North,0,0.0,0.0,77,0.00,,,0.00,WUHU216HW,2013-06-05 03:48:00,
2013-06-04 20:53:00,57.4,50.2,30.06,North,0,0.0,0.0,77,0.00,,,0.00,WUHU216HW,2013-06-05 03:53:00,
2013-06-04 20:58:00,57.4,50.6,30.06,North,0,0.0,0.0,78,0.00,,,0.00,WUHU216HW,2013-06-05 03:58:00,
2013-06-04 21:03:00,57.2,50.4,30.06,North,0,0.0,0.0,78,0.00,,,0.00,WUHU216HW,2013-06-05 04:03:00,
2013-06-04 21:08:00,57.2,50.4,30.06,North,0,0.0,0.0,78,0.00,,,0.00,WUHU216HW,2013-06-05 04:08:00,
2013-06-04 21:13:00,57.2,50.8,30.07,North,0,0.0,0.0,79,0.00,,,0.00,WUHU216HW,2013-06-05 04:13:00,
2013-06-04 21:18:00,57.2,50.8,30.07,North,0,0.0,0.0,79,0.00,,,0.00,WUHU216HW,2013-06-05 04:18:00,
2013-06-04 21:23:00,57.2,50.8,30.07,North,0,0.0,0.0,79,0.00,,,0.00,WUHU216HW,2013-06-05 04:23:00,
2013-06-04 21:28:00,57.2,50.8,30.07,North,0,0.0,0.0,79,0.00,,,0.00,WUHU216HW,2013-06-05 04:28:00,
2013-06-04 21:33:00,57.2,50.8,30.07,North,0,0.0,0.0,79,0.00,,,0.00,WUHU216HW,2013-06-05 04:33:00,
2013-06-04 21:38:00,57.2,50.8,30.07,North,0,0.0,0.0,79,0.00,,,0.00,WUHU216HW,2013-06-05 04:38:00,
2013-06-04 21:43:00,57.1,50.6,30.07,North,0,0.0,0.0,79,0.00,,,0.00,WUHU216HW,2013-06-05 04:43:00,
2013-06-04 21:48:00,57.1,50.6,30.08,North,0,0.0,0.0,79,0.00,,,0.00,WUHU216HW,2013-06-05 04:48:00,
2013-06-04 21:53:00,56.9,50.4,30.08,North,0,0.0,0.0,79,0.00,,,0.00,WUHU216HW,2013-06-05 04:53:00,
2013-06-04 21:58:00,56.7,50.2,30.08,North,0,0.0,0.0,79,0.00,,,0.00,WUHU216HW,2013-06-05 04:58:00,
2013-06-04 22:03:00,56.7,50.2,30.08,North,0,0.0,0.0,79,0.00,,,0.00,WUHU216HW,2013-06-05 05:03:00,
2013-06-04 22:08:00,56.5,50.4,30.09,North,0,0.0,0.0,80,0.00,,,0.00,WUHU216HW,2013-06-05 05:08:00,
2013-06-04 22:13:00,56.5,50.4,30.08,North,0,0.0,0.0,80,0.00,,,0.00,WUHU216HW,2013-06-05 05:13:00,
2013-06-04 22:18:00,56.3,50.2,30.08,North,0,0.0,0.0,80,0.00,,,0.00,WUHU216HW,2013-06-05 05:18:00,
2013-06-04 22:23:00,56.3,50.2,30.08,North,0,0.0,0.0,80,0.00,,,0.00,WUHU216HW,2013-06-05 05:23:00,
2013-06-04 22:28:00,56.3,50.6,30.08,North,0,0.0,0.0,81,0.00,,,0.00,WUHU216HW,2013-06-05 05:28:00,
2013-06-04 22:33:00,56.2,50.4,30.08,North,0,0.0,0.0,81,0.00,,,0.00,WUHU216HW,2013-06-05 05:33:00,
2013-06-04 22:38:00,56.0,50.2,30.09,North,0,0.0,0.0,81,0.00,,,0.00,WUHU216HW,2013-06-05 05:38:00,
2013-06-04 22:43:00,55.8,50.1,30.08,North,0,0.0,0.0,81,0.00,,,0.00,WUHU216HW,2013-06-05 05:43:00,
2013-06-04 22:48:00,55.6,49.9,30.09,North,0,0.0,0.0,81,0.00,,,0.00,WUHU216HW,2013-06-05 05:48:00,
2013-06-04 22:53:00,55.6,49.9,30.08,North,0,0.0,0.0,81,0.00,,,0.00,WUHU216HW,2013-06-05 05:53:00,
2013-06-04 22:58:00,55.4,49.7,30.09,North,0,0.0,0.0,81,0.00,,,0.00,WUHU216HW,2013-06-05 05:58:00,
2013-06-04 23:03:00,55.3,49.8,30.09,North,0,0.0,0.0,82,0.00,,,0.00,WUHU216HW,2013-06-05 06:03:00,
2013-06-04 23:08:00,55.1,49.7,30.09,North,0,0.0,0.0,82,0.00,,,0.00,WUHU216HW,2013-06-05 06:08:00,
2013-06-04 23:13:00,54.9,49.5,30.09,North,0,0.0,0.0,82,0.00,,,0.00,WUHU216HW,2013-06-05 06:13:00,
2013-06-04 23:18:00,54.7,49.3,30.09,North,0,0.0,0.0,82,0.00,,,0.00,WUHU216HW,2013-06-05 06:18:00,
2013-06-04 23:23:00,54.7,50.2,30.09,North,0,0.0,0.0,85,0.00,,,0.00,WUHU216HW,2013-06-05 06:23:00,
2013-06-04 23:28:00,54.5,50.4,30.09,North,0,0.0,0.0,86,0.00,,,0.00,WUHU216HW,2013-06-05 06:28:00,
2013-06-04 23:33:00,54.4,50.2,30.09,North,0,0.0,0.0,86,0.00,,,0.00,WUHU216HW,2013-06-05 06:33:00,
2013-06-04 23:38:00,54.2,50.7,30.09,North,0,0.0,0.0,88,0.00,,,0.00,WUHU216HW,2013-06-05 06:38:00,
2013-06-04 23:43:00,54.0,50.5,30.09,North,0,0.0,0.0,88,0.00,,,0.00,WUHU216HW,2013-06-05 06:43:00,
2013-06-04 23:48:00,53.8,50.7,30.09,North,0,0.0,0.0,89,0.00,,,0.00,WUHU216HW,2013-06-05 06:48:00,
2013-06-04 23:53:00,53.6,50.5,30.09,North,0,0.0,0.0,89,0.00,,,0.00,WUHU216HW,2013-06-05 06:53:00,
2013-06-04 23:58:00,53.6,50.5,30.09,North,0,0.0,0.0,89,0.00,,,0.00,WUHU216HW,2013-06-05 06:58:00,